createdAt,value
2018-06-19T02:25:15.020Z,77.30
2018-06-19T02:27:43.461Z,79.30
2018-06-19T02:30:12.870Z,79.50
2018-06-19T02:32:41.325Z,79.40
2018-06-19T02:35:09.928Z,79.00
2018-06-19T02:37:38.399Z,79.40
2018-06-19T02:40:06.948Z,79.80
2018-06-19T02:42:35.470Z,79.70
2018-06-19T02:45:04.067Z,79.70
2018-06-19T02:47:32.570Z,79.80
2018-06-19T02:50:01.037Z,80.00
2018-06-19T02:52:29.600Z,79.90
2018-06-19T02:54:58.132Z,80.00
2018-06-19T02:57:26.603Z,79.60
2018-06-19T02:59:55.108Z,79.50
2018-06-19T03:02:23.635Z,79.50
2018-06-19T03:04:52.246Z,79.40
2018-06-19T03:07:20.769Z,79.30
2018-06-19T03:09:49.392Z,79.60
2018-06-19T03:12:17.828Z,79.60
2018-06-19T03:14:46.405Z,79.10
2018-06-19T03:17:14.841Z,79.10
2018-06-19T03:19:43.339Z,79.00
2018-06-19T03:22:11.789Z,79.00
2018-06-19T03:24:40.458Z,78.80
2018-06-19T03:27:08.888Z,79.10
2018-06-19T03:29:37.475Z,78.60
2018-06-19T03:32:06.125Z,78.10
2018-06-19T03:34:34.608Z,77.90
2018-06-19T03:37:03.054Z,78.00
2018-06-19T03:39:31.579Z,77.90
2018-06-19T03:41:59.987Z,77.50
2018-06-19T03:44:28.598Z,77.30
2018-06-19T03:46:57.059Z,77.00
2018-06-19T03:49:25.644Z,77.70
2018-06-19T03:51:54.116Z,78.30
2018-06-19T03:54:22.595Z,78.70
2018-06-19T03:56:51.749Z,79.00
2018-06-19T03:59:20.685Z,79.30
2018-06-19T04:01:49.844Z,79.40
2018-06-19T04:04:18.402Z,79.40
2018-06-19T04:06:46.910Z,79.40
2018-06-19T04:09:15.453Z,79.20
2018-06-19T04:11:43.923Z,78.50
2018-06-19T04:14:12.411Z,78.30
2018-06-19T04:16:40.866Z,78.10
2018-06-19T04:19:09.434Z,77.80
2018-06-19T04:24:06.036Z,78.20
2018-06-19T04:26:34.463Z,78.40
2018-06-19T04:29:02.993Z,78.60
2018-06-19T04:31:31.500Z,78.40
2018-06-19T04:34:00.034Z,78.90
2018-06-19T04:36:28.468Z,78.90
2018-06-19T04:38:57.039Z,78.30
2018-06-19T04:41:25.519Z,78.40
2018-06-19T04:43:54.007Z,78.60
2018-06-19T04:46:22.453Z,78.80
2018-06-19T04:48:51.067Z,78.80
2018-06-19T04:51:20.405Z,78.50
2018-06-19T04:53:49.068Z,78.70
2018-06-19T04:56:17.496Z,78.60
2018-06-19T04:58:46.006Z,78.20
2018-06-19T05:01:14.457Z,78.50
2018-06-19T05:03:42.983Z,78.40
2018-06-19T05:06:11.660Z,79.70
2018-06-19T05:08:40.090Z,78.20
2018-06-19T05:11:08.609Z,78.90
2018-06-19T05:13:37.101Z,79.90
2018-06-19T05:16:05.712Z,78.80
2018-06-19T05:18:34.192Z,78.80
2018-06-19T05:21:02.765Z,78.40
2018-06-19T05:23:31.254Z,78.80
2018-06-19T05:25:59.812Z,80.70
2018-06-19T05:28:28.243Z,79.70
2018-06-19T05:30:56.789Z,79.10
2018-06-19T05:33:25.302Z,80.10
2018-06-19T05:35:53.826Z,80.60
2018-06-19T05:38:22.293Z,80.80
2018-06-19T05:40:51.477Z,79.70
2018-06-19T05:43:19.936Z,78.80
2018-06-19T05:45:48.420Z,79.40
2018-06-19T05:48:16.854Z,80.50
2018-06-19T05:50:45.405Z,79.30
2018-06-19T05:53:13.859Z,80.40
2018-06-19T05:55:42.373Z,80.10
2018-06-19T05:58:10.797Z,80.30
2018-06-19T06:00:39.288Z,80.10
2018-06-19T06:03:07.729Z,80.10
2018-06-19T06:05:36.311Z,80.50
2018-06-19T06:08:05.345Z,80.00
2018-06-19T06:10:33.866Z,81.30
2018-06-19T06:13:02.465Z,81.20
2018-06-19T06:15:31.058Z,82.80
2018-06-19T06:17:59.477Z,81.30
2018-06-19T06:20:28.314Z,81.20
2018-06-19T06:22:56.908Z,81.10
2018-06-19T06:25:25.317Z,80.40
2018-06-19T06:27:53.804Z,81.10
2018-06-19T06:30:22.267Z,81.40
2018-06-19T06:32:51.422Z,81.60
2018-06-19T06:35:20.022Z,81.20
2018-06-19T06:37:48.542Z,80.90
2018-06-19T06:40:16.947Z,81.00
2018-06-19T06:42:45.390Z,80.80
2018-06-19T06:45:14.012Z,80.70
2018-06-19T06:47:42.504Z,80.60
2018-06-19T06:50:11.033Z,81.00
2018-06-19T06:52:39.813Z,80.80
2018-06-19T06:55:08.400Z,81.20
2018-06-19T06:57:36.919Z,80.50
2018-06-19T07:00:05.857Z,80.80
2018-06-19T07:02:34.389Z,81.00
2018-06-19T07:05:02.823Z,81.00
2018-06-19T07:07:31.341Z,81.80
2018-06-19T07:09:59.832Z,81.80
2018-06-19T07:12:28.544Z,82.00
2018-06-19T07:14:57.011Z,82.00
2018-06-19T07:17:25.520Z,82.70
2018-06-19T07:19:53.935Z,81.10
2018-06-19T07:22:22.419Z,82.10
2018-06-19T07:24:51.009Z,81.10
2018-06-19T07:27:19.467Z,81.80
2018-06-19T07:29:47.891Z,81.70
2018-06-19T07:32:16.448Z,81.70
2018-06-19T07:34:44.938Z,81.70
2018-06-19T07:37:13.508Z,80.90
2018-06-19T07:39:41.961Z,81.20
2018-06-19T07:42:10.418Z,81.80
2018-06-19T07:44:38.990Z,81.70
2018-06-19T07:47:07.471Z,82.20
2018-06-19T07:49:35.834Z,81.80
2018-06-19T07:52:04.401Z,81.80
2018-06-19T07:54:32.834Z,81.70
2018-06-19T07:57:01.332Z,82.20
2018-06-19T07:59:29.825Z,81.40
2018-06-19T08:01:58.317Z,81.00
2018-06-19T08:04:26.738Z,81.20
2018-06-19T08:06:55.287Z,81.10
2018-06-19T08:11:52.003Z,81.00
2018-06-19T08:14:21.736Z,81.00
2018-06-19T08:16:51.098Z,81.90
2018-06-19T08:19:20.038Z,80.90
2018-06-19T08:21:48.625Z,81.20
2018-06-19T08:26:45.300Z,80.90
2018-06-19T08:29:13.777Z,80.90
2018-06-19T08:31:42.340Z,80.50
2018-06-19T08:34:10.850Z,80.60
2018-06-19T08:36:39.346Z,80.60
2018-06-19T08:39:10.437Z,80.60
2018-06-19T08:41:38.927Z,80.30
2018-06-19T08:44:07.400Z,80.80
2018-06-19T08:46:37.192Z,81.00
2018-06-19T08:49:05.749Z,82.10
2018-06-19T08:51:34.256Z,81.10
2018-06-19T08:54:02.753Z,81.10
2018-06-19T08:56:31.286Z,80.60
2018-06-19T08:58:59.819Z,79.90
2018-06-19T09:01:28.336Z,80.00
2018-06-19T09:03:56.787Z,80.30
2018-06-19T09:06:25.382Z,80.10
2018-06-19T09:08:53.838Z,80.00
2018-06-19T09:11:22.372Z,79.90
2018-06-19T09:13:50.812Z,80.20
2018-06-19T09:16:19.364Z,80.10
2018-06-19T09:18:47.867Z,79.80
2018-06-19T09:21:16.419Z,79.20
2018-06-19T09:23:45.182Z,79.00
2018-06-19T09:26:13.672Z,79.40
2018-06-19T09:28:42.045Z,79.80
2018-06-19T09:31:10.939Z,80.70
2018-06-19T09:33:39.401Z,79.70
2018-06-19T09:36:07.888Z,79.40
2018-06-19T09:38:37.009Z,79.20
2018-06-19T09:41:06.349Z,79.00
2018-06-19T09:43:34.859Z,79.40
2018-06-19T09:46:03.320Z,79.60
2018-06-19T09:48:31.805Z,79.10
2018-06-19T09:51:00.338Z,78.90
2018-06-19T09:53:28.793Z,78.80
2018-06-19T09:55:57.864Z,78.50
2018-06-19T09:58:26.594Z,78.30
2018-06-19T10:00:55.856Z,77.80
2018-06-19T10:03:24.310Z,78.00
2018-06-19T10:05:52.816Z,77.90
2018-06-19T10:08:21.249Z,77.70
2018-06-19T10:12:14.515Z,77.90
2018-06-19T10:14:43.045Z,78.00
2018-06-19T10:17:11.551Z,77.20
2018-06-19T10:19:40.032Z,77.90
2018-06-19T10:22:08.671Z,78.10
2018-06-19T10:24:37.096Z,77.90
2018-06-19T10:29:35.019Z,77.70
2018-06-19T10:32:03.505Z,77.30
2018-06-19T10:34:31.975Z,77.00
2018-06-19T10:37:00.396Z,77.30
2018-06-19T10:39:28.885Z,77.60
2018-06-19T10:41:58.338Z,77.30
2018-06-19T10:44:26.836Z,77.20
2018-06-19T10:46:55.373Z,77.00
2018-06-19T10:49:23.867Z,78.20
2018-06-19T10:51:52.548Z,78.20
2018-06-19T10:54:21.238Z,76.90
2018-06-19T10:56:49.632Z,76.90
2018-06-19T10:59:18.091Z,77.90
2018-06-19T11:01:46.609Z,77.70
2018-06-19T11:04:15.127Z,77.90
2018-06-19T11:06:43.724Z,77.20
2018-06-19T11:09:12.795Z,77.70
2018-06-19T11:11:41.786Z,77.90
2018-06-19T11:14:10.289Z,78.00
2018-06-19T11:16:39.043Z,78.40
2018-06-19T11:21:36.620Z,77.40
2018-06-19T11:24:05.624Z,76.20
2018-06-19T11:26:34.989Z,76.90
2018-06-19T11:29:03.493Z,76.30
2018-06-19T11:31:32.120Z,75.40
2018-06-19T11:34:00.683Z,76.20
2018-06-19T11:36:29.544Z,76.40
2018-06-19T11:38:57.976Z,76.00
2018-06-19T11:41:26.774Z,75.30
2018-06-19T11:43:55.593Z,75.70
2018-06-19T11:46:24.170Z,74.60
2018-06-19T11:48:52.600Z,76.30
2018-06-19T11:51:21.110Z,75.90
2018-06-19T11:56:17.997Z,73.30
2018-06-19T11:58:46.432Z,75.50
2018-06-19T12:01:14.923Z,74.70
2018-06-19T12:03:43.517Z,75.80
2018-06-19T12:06:12.033Z,76.90
2018-06-19T12:08:40.526Z,75.30
2018-06-19T12:11:09.026Z,75.60
2018-06-19T12:13:37.544Z,75.90
2018-06-19T12:16:06.650Z,75.70
2018-06-19T12:18:35.901Z,75.50
2018-06-19T12:21:04.945Z,74.50
2018-06-19T12:23:34.204Z,75.10
2018-06-19T12:26:03.074Z,74.60
2018-06-19T12:28:31.670Z,73.10
2018-06-19T12:31:00.223Z,73.50
2018-06-19T13:56:04.167Z,75.60
2018-06-19T13:58:35.016Z,73.50
2018-06-19T14:01:03.561Z,73.20
2018-06-19T14:03:32.066Z,73.10
2018-06-19T14:06:00.575Z,72.70
2018-06-19T14:08:58.782Z,72.60
2018-06-19T14:11:38.659Z,72.30
2018-06-19T14:14:07.201Z,71.20
2018-06-19T14:16:36.753Z,71.20
2018-06-19T14:19:05.949Z,70.70
2018-06-19T14:21:35.112Z,72.00
2018-06-19T14:24:03.623Z,71.80
2018-06-19T14:26:32.106Z,72.00
2018-06-19T14:29:00.573Z,70.80
2018-06-19T14:31:29.053Z,71.60
2018-06-19T14:33:57.566Z,71.10
2018-06-19T14:36:26.097Z,71.40
2018-06-19T14:38:54.549Z,70.10
2018-06-19T14:41:23.167Z,66.70
2018-06-19T14:43:51.713Z,68.90
2018-06-19T14:46:20.421Z,68.50
2018-06-19T14:48:48.843Z,69.20
2018-06-19T14:51:17.307Z,67.00
2018-06-19T14:53:45.787Z,67.40
2018-06-19T14:56:14.387Z,68.20
2018-06-19T14:58:42.890Z,66.00
2018-06-19T15:01:11.464Z,70.00
2018-06-19T15:03:39.982Z,69.70
2018-06-19T15:06:08.543Z,69.80
2018-06-19T15:08:37.035Z,69.60
2018-06-19T15:11:06.196Z,67.60
2018-06-19T15:13:35.451Z,68.00
2018-06-19T15:16:04.191Z,68.30
2018-06-19T15:18:32.652Z,68.80
2018-06-19T15:21:01.296Z,68.20
2018-06-19T15:23:29.821Z,67.90
2018-06-19T15:25:58.476Z,66.00
2018-06-19T15:28:27.003Z,66.20
2018-06-19T15:30:55.503Z,65.90
2018-06-19T15:33:23.960Z,63.70
2018-06-19T15:35:52.573Z,66.10
2018-06-19T15:38:21.100Z,64.80
2018-06-19T15:40:49.678Z,64.50
2018-06-19T15:43:18.166Z,64.90
2018-06-19T15:45:46.690Z,61.70
2018-06-19T15:48:15.216Z,63.50
2018-06-19T15:50:43.717Z,65.00
2018-06-19T15:55:40.446Z,67.90
2018-06-19T15:58:08.929Z,67.40
2018-06-19T16:00:37.449Z,69.20
2018-06-19T16:03:06.896Z,69.30
2018-06-19T16:05:36.009Z,69.50
2018-06-19T16:08:09.946Z,69.50
2018-06-19T16:10:38.584Z,68.60
2018-06-19T16:13:07.766Z,69.20
2018-06-19T16:15:36.234Z,69.60
2018-06-19T16:18:05.434Z,68.40
2018-06-19T16:20:35.034Z,68.40
2018-06-19T16:23:03.714Z,69.50
2018-06-19T16:25:32.230Z,66.50
2018-06-19T16:28:00.781Z,68.20
2018-06-19T16:30:29.309Z,68.70
2018-06-19T16:32:57.969Z,69.60
2018-06-19T16:35:26.419Z,68.80
2018-06-19T16:37:54.897Z,70.40
2018-06-19T16:40:23.372Z,70.60
2018-06-19T16:42:51.954Z,70.10
2018-06-19T16:45:20.427Z,68.80
2018-06-19T16:47:48.900Z,68.20
2018-06-19T16:50:17.336Z,67.40
2018-06-19T16:52:45.945Z,69.40
2018-06-19T16:55:14.432Z,68.50
2018-06-19T16:57:43.038Z,68.90
2018-06-19T17:00:11.510Z,68.50
2018-06-19T17:02:40.221Z,68.90
2018-06-19T17:05:08.877Z,68.80
2018-06-19T17:07:41.043Z,68.60
2018-06-19T17:10:09.937Z,68.70
2018-06-19T17:12:38.508Z,68.80
2018-06-19T17:15:07.020Z,69.00
2018-06-19T17:17:36.512Z,69.50
2018-06-19T17:20:06.181Z,69.10
2018-06-19T17:22:35.291Z,69.90
2018-06-19T17:25:04.109Z,70.80
2018-06-19T17:27:32.685Z,69.40
2018-06-19T17:30:01.187Z,70.10
2018-06-19T17:32:29.914Z,70.20
2018-06-19T17:34:58.388Z,69.40
2018-06-19T17:39:55.172Z,71.90
2018-06-19T17:42:23.710Z,71.50
2018-06-19T17:44:52.204Z,72.50
2018-06-19T17:47:20.798Z,71.50
2018-06-19T17:49:49.337Z,72.00
2018-06-19T17:52:17.832Z,72.70
2018-06-19T17:54:46.465Z,72.50
2018-06-19T17:57:14.989Z,73.10
2018-06-19T17:59:43.524Z,71.00
2018-06-19T18:02:11.964Z,71.70
2018-06-19T18:04:40.394Z,71.60
2018-06-19T18:07:09.911Z,73.60
2018-06-19T18:09:38.426Z,74.30
2018-06-19T18:14:35.284Z,74.30
2018-06-19T18:17:05.549Z,75.20
2018-06-19T18:19:34.341Z,75.40
2018-06-19T18:22:02.922Z,75.80
2018-06-19T18:24:31.359Z,76.00
2018-06-19T18:27:00.136Z,75.20
2018-06-19T18:29:28.577Z,75.70
2018-06-19T18:31:57.075Z,75.70
2018-06-19T18:34:25.529Z,75.60
2018-06-19T18:36:54.143Z,75.80
2018-06-19T18:39:22.655Z,76.60
2018-06-19T18:41:51.154Z,76.90
2018-06-19T18:44:19.524Z,76.70
2018-06-19T18:46:48.125Z,76.70
2018-06-19T18:49:16.779Z,76.80
2018-06-19T18:51:45.412Z,76.90
2018-06-19T18:54:13.855Z,77.60
2018-06-19T18:56:42.415Z,77.40
2018-06-19T18:59:10.864Z,77.30
2018-06-19T19:01:39.415Z,77.00
2018-06-19T19:04:07.884Z,77.40
2018-06-19T19:06:36.737Z,77.50
2018-06-19T19:09:08.348Z,77.00
2018-06-19T19:11:36.821Z,77.20
2018-06-19T19:14:05.811Z,77.10
2018-06-19T19:16:39.808Z,77.70
2018-06-19T19:19:11.227Z,77.00
2018-06-19T19:21:39.816Z,77.20
2018-06-19T19:24:08.349Z,77.60
2018-06-19T19:26:42.294Z,77.10
2018-06-19T19:29:16.123Z,77.50
2018-06-19T19:31:44.613Z,77.40
2018-06-19T19:34:13.144Z,77.50
2018-06-19T19:36:46.972Z,77.30
2018-06-19T19:39:20.718Z,77.20
2018-06-19T19:41:49.197Z,77.30
2018-06-19T19:44:17.717Z,77.40
2018-06-19T19:46:51.608Z,77.10
2018-06-19T19:49:20.096Z,77.20
2018-06-19T19:51:48.764Z,76.80
2018-06-19T19:54:17.282Z,76.60
2018-06-19T19:56:51.046Z,76.90
2018-06-19T19:59:19.593Z,76.60
2018-06-19T20:01:48.084Z,76.50
2018-06-19T20:04:16.504Z,76.70
2018-06-19T20:06:45.138Z,76.90
2018-06-19T20:09:13.636Z,77.00
2018-06-19T20:11:42.074Z,77.00
2018-06-19T20:14:10.552Z,77.00
2018-06-19T20:16:39.112Z,76.80
2018-06-19T20:19:07.590Z,76.90
2018-06-19T20:21:37.112Z,77.20
2018-06-19T20:24:06.209Z,77.60
2018-06-19T20:26:35.399Z,77.30
2018-06-19T20:29:04.601Z,77.40
2018-06-19T20:31:33.742Z,77.70
2018-06-19T20:34:02.236Z,77.60
2018-06-19T20:36:30.736Z,77.80
2018-06-19T20:38:59.259Z,78.00
2018-06-19T20:41:27.708Z,78.30
2018-06-19T20:43:56.160Z,77.80
2018-06-19T20:46:24.585Z,77.90
2018-06-19T20:48:53.097Z,77.60
2018-06-19T20:51:21.613Z,77.90
2018-06-19T20:53:50.038Z,78.00
2018-06-19T20:56:18.480Z,78.10
2018-06-19T20:58:47.017Z,78.20
2018-06-19T21:01:15.531Z,78.40
2018-06-19T21:03:43.996Z,78.50
2018-06-19T21:06:12.375Z,78.40
2018-06-19T21:08:42.014Z,78.40
2018-06-19T21:11:12.183Z,78.50
2018-06-19T21:13:40.718Z,78.50
2018-06-19T21:16:09.908Z,78.80
2018-06-19T21:18:39.039Z,79.00
2018-06-19T21:21:07.639Z,79.20
2018-06-19T21:23:37.290Z,78.90
2018-06-19T21:26:06.165Z,79.30
2018-06-19T21:28:35.352Z,79.40
2018-06-19T21:31:04.661Z,79.30
2018-06-19T21:33:33.845Z,79.10
2018-06-19T21:36:02.334Z,79.00
2018-06-19T21:38:31.046Z,78.50
2018-06-19T21:40:59.590Z,78.60
2018-06-19T21:43:28.036Z,78.80
2018-06-19T21:45:56.499Z,78.60
2018-06-19T21:48:25.055Z,78.50
2018-06-19T21:50:53.519Z,78.30
2018-06-19T21:53:22.111Z,78.10
2018-06-19T21:55:50.638Z,78.30
2018-06-19T21:58:19.139Z,77.90
2018-06-19T22:00:47.605Z,78.30
2018-06-19T22:03:16.060Z,77.90
2018-06-19T22:05:44.527Z,77.90
2018-06-19T22:08:13.050Z,77.60
2018-06-19T22:10:41.871Z,77.40
2018-06-19T22:13:10.375Z,77.30
2018-06-19T22:15:38.895Z,77.10
2018-06-19T22:18:07.433Z,77.00
2018-06-19T22:20:36.471Z,77.30
2018-06-19T22:23:05.737Z,77.30
2018-06-19T22:25:34.525Z,77.40
2018-06-19T22:28:03.119Z,77.50
2018-06-19T22:30:31.574Z,77.70
2018-06-19T22:33:00.143Z,78.30
2018-06-19T22:35:28.645Z,78.20
2018-06-19T22:37:57.432Z,78.10
2018-06-19T22:40:26.135Z,77.90
2018-06-19T22:42:54.656Z,78.00
2018-06-19T22:45:23.161Z,78.00
2018-06-19T22:47:51.788Z,77.70
2018-06-19T22:50:20.334Z,77.30
2018-06-19T22:52:48.983Z,77.20
2018-06-19T22:57:45.802Z,77.40
2018-06-19T23:00:14.388Z,77.70
2018-06-19T23:02:42.960Z,77.70
2018-06-19T23:05:11.447Z,77.70
2018-06-19T23:07:39.997Z,77.70
2018-06-19T23:10:08.603Z,77.80
2018-06-19T23:12:37.047Z,77.80
2018-06-19T23:15:06.284Z,77.90
2018-06-19T23:17:35.455Z,77.70
2018-06-19T23:20:04.381Z,77.30
2018-06-19T23:22:32.912Z,77.70
2018-06-19T23:25:01.446Z,77.60
2018-06-19T23:27:29.873Z,77.70
2018-06-19T23:29:58.392Z,77.80
2018-06-19T23:32:26.852Z,78.00
2018-06-19T23:34:55.359Z,77.90
2018-06-19T23:37:23.732Z,78.10
2018-06-19T23:39:52.204Z,78.20
2018-06-19T23:42:20.689Z,78.00
2018-06-19T23:44:49.224Z,78.10
2018-06-19T23:47:17.698Z,77.70
2018-06-19T23:49:46.183Z,78.10
2018-06-19T23:52:14.630Z,78.50
2018-06-19T23:54:43.250Z,79.40
2018-06-19T23:59:39.897Z,79.60
